Terminal Aerodrome Forecast
Issued by NWS

Home | Current Version | Previous Version | Text Only | Print | Product List | Glossary On
Versions: 1 2 3 4 5 6 7 8 9 10 11 12 13 14 15 16 17 18 19 20 21 22 23 24 25 26 27
000
FTUS43 KMKX 161728
TAFUES
TAF
KUES 161728Z 1618/1718 11004KT 2SM -FZRA BR OVC006
     FM162100 09004KT 1 1/2SM -RA BR OVC006
     FM171200 03004KT 1SM BR OVC003
     FM171400 01004KT 5SM BR OVC003=

USA.gov is the U.S. government's official web portal to all federal, state and local government web resources and services.